Time;durP1;ratioP1;P1;durP2;ratioP2;P2;SDS_P1;SDS_P2;PMS_P1;PMS_P2;Temp;Humidity;BMP_temperature;BMP_pressure;BME280_temperature;BME280_humidity;BME280_pressure;Samples;Min_cycle;Max_cycle;Signal;HPM_P1;HPM_P2
2021/03/07 00:00:46;;;;;;;8.60;2.23;;;;;;;-144.99;85.01;52366.56;4948364;28;20676;-73
2021/03/07 00:03:12;;;;;;;2.73;1.60;;;;;;;-144.99;85.41;52403.25;4956458;28;20642;-74
2021/03/07 00:05:39;;;;;;;2.50;1.60;;;;;;;-144.99;85.63;52395.09;4955306;28;20668;-76
2021/03/07 00:08:05;;;;;;;4.70;1.80;;;;;;;-144.99;85.96;52342.09;4955931;28;20197;-74
2021/03/07 00:10:31;;;;;;;3.20;2.03;;;;;;;-144.99;86.30;52346.19;4957119;28;20682;-75
2021/03/07 00:12:57;;;;;;;4.10;1.60;;;;;;;-144.99;86.78;52370.63;4955420;28;21226;-74
2021/03/07 00:15:24;;;;;;;6.30;1.87;;;;;;;-144.99;86.92;52415.47;4960978;28;20978;-72
2021/03/07 00:17:51;;;;;;;3.67;1.43;;;;;;;-144.99;86.83;52366.56;4959280;28;20670;-72
2021/03/07 00:20:19;;;;;;;2.37;1.07;;;;;;;-144.99;86.98;52372.69;4955409;28;21373;-72
2021/03/07 00:22:46;;;;;;;4.23;1.60;;;;;;;-144.99;86.99;52374.72;4957582;28;20654;-73
2021/03/07 00:25:14;;;;;;;3.00;1.23;;;;;;;-144.99;87.07;52366.56;4966635;28;20625;-72
2021/03/07 00:27:40;;;;;;;2.37;1.30;;;;;;;-144.99;86.79;52370.63;4972476;28;20631;-72
2021/03/07 00:30:09;;;;;;;4.93;1.63;;;;;;;-144.99;86.82;52342.09;4959223;28;20666;-71
2021/03/07 00:32:35;;;;;;;4.10;1.40;;;;;;;-144.99;86.88;52354.34;4975266;28;21060;-74
2021/03/07 00:35:01;;;;;;;4.73;1.87;;;;;;;-144.99;87.00;52370.63;4969720;28;20632;-72
2021/03/07 00:37:27;;;;;;;4.93;2.27;;;;;;;-144.99;87.00;52366.56;4626460;28;10000503;-72
2021/03/07 00:39:54;;;;;;;6.07;2.43;;;;;;;-144.99;86.85;52362.50;4964558;28;20200;-73
2021/03/07 00:42:20;;;;;;;4.17;2.40;;;;;;;-144.99;87.09;52362.50;4964838;28;20442;-77
2021/03/07 00:44:46;;;;;;;8.27;2.07;;;;;;;-144.99;87.04;52350.25;4960182;28;20638;-74
2021/03/07 00:47:13;;;;;;;5.17;2.63;;;;;;;-144.99;86.83;52378.78;4994677;23;20732;-73
2021/03/07 00:49:39;;;;;;;3.57;1.60;;;;;;;-144.99;86.81;52399.19;4969423;28;20639;-72
2021/03/07 00:52:05;;;;;;;4.27;1.83;;;;;;;-144.99;86.48;52397.13;4965332;28;20766;-72
2021/03/07 00:54:32;;;;;;;3.77;1.43;;;;;;;-144.99;86.28;52376.75;4970269;28;20627;-73
2021/03/07 00:56:59;;;;;;;2.23;1.77;;;;;;;-144.99;86.28;52354.34;4969214;28;20658;-72
2021/03/07 00:59:25;;;;;;;3.70;1.57;;;;;;;-144.99;86.39;52427.72;4971779;28;20642;-73
2021/03/07 01:01:51;;;;;;;3.40;1.27;;;;;;;-144.99;86.32;52364.53;4968313;28;20643;-75
2021/03/07 01:04:17;;;;;;;5.20;3.83;;;;;;;-144.99;86.47;52391.03;4967949;28;20646;-73
2021/03/07 01:06:43;;;;;;;6.77;1.73;;;;;;;-144.99;86.37;52374.72;4965294;28;20782;-74
2021/03/07 01:09:09;;;;;;;4.53;1.60;;;;;;;-144.99;86.23;52378.78;4970764;28;20654;-73
2021/03/07 01:11:35;;;;;;;5.47;1.27;;;;;;;-144.99;86.37;52409.38;4971424;28;20638;-71
2021/03/07 01:14:03;;;;;;;2.23;1.47;;;;;;;-144.99;86.44;52399.19;4969572;28;21243;-72
2021/03/07 01:16:29;;;;;;;2.33;1.30;;;;;;;-144.99;85.80;52350.25;4970201;28;20659;-74
2021/03/07 01:18:55;;;;;;;4.63;1.20;;;;;;;-144.99;85.55;52354.34;4973530;28;20631;-73
2021/03/07 01:21:22;;;;;;;5.17;1.40;;;;;;;-144.99;85.74;52374.72;4971310;28;20629;-74
2021/03/07 01:23:48;;;;;;;4.83;1.63;;;;;;;-144.99;85.93;52364.53;4972773;28;20651;-72
2021/03/07 01:26:14;;;;;;;4.70;2.47;;;;;;;-144.99;86.30;52362.50;4972850;28;21195;-73
2021/03/07 01:28:40;;;;;;;3.80;1.43;;;;;;;-144.99;86.37;52333.94;4971759;28;20653;-73
2021/03/07 01:31:07;;;;;;;3.40;1.43;;;;;;;-144.99;86.43;52350.25;4969309;28;20633;-72
2021/03/07 01:33:33;;;;;;;3.33;0.93;;;;;;;-144.99;86.91;52342.09;4972865;28;20651;-71
2021/03/07 01:36:02;;;;;;;3.70;1.20;;;;;;;-144.99;87.17;52354.34;4972885;28;21145;-71
2021/03/07 01:38:29;;;;;;;5.03;1.90;;;;;;;-144.99;88.01;52358.41;4970781;28;20287;-73
2021/03/07 01:40:55;;;;;;;7.20;2.87;;;;;;;-144.99;89.04;52374.72;4973272;28;21014;-72
2021/03/07 01:43:22;;;;;;;3.17;1.60;;;;;;;-144.99;89.62;52366.56;4969039;28;21076;-71
2021/03/07 01:45:50;;;;;;;5.53;1.30;;;;;;;-144.99;89.96;52368.59;4971095;28;20651;-71
2021/03/07 01:48:17;;;;;;;6.50;1.30;;;;;;;-144.99;90.34;52411.41;4966077;28;20626;-70
2021/03/07 01:50:45;;;;;;;2.77;1.70;;;;;;;-144.99;90.34;52376.75;4967397;28;21008;-69
2021/03/07 01:53:12;;;;;;;3.63;1.43;;;;;;;-144.99;89.91;52358.41;4965740;28;20671;-69
2021/03/07 01:55:39;;;;;;;6.10;1.33;;;;;;;-144.99;89.34;52342.09;4967910;28;20667;-70
2021/03/07 01:58:09;;;;;;;3.37;1.03;;;;;;;-144.99;88.91;52370.63;4970153;28;20698;-69
2021/03/07 02:00:36;;;;;;;3.57;1.17;;;;;;;-144.99;88.61;52370.63;4967421;28;20659;-71
2021/03/07 02:03:03;;;;;;;7.47;1.30;;;;;;;-144.99;88.30;52360.44;4964950;28;20646;-71
2021/03/07 02:05:31;;;;;;;3.20;1.57;;;;;;;-144.99;88.28;52342.09;4964248;28;20685;-72
2021/03/07 02:07:57;;;;;;;3.87;1.67;;;;;;;-144.99;88.21;52366.56;4968919;28;20746;-70
2021/03/07 02:10:25;;;;;;;3.70;1.13;;;;;;;-144.99;87.78;52386.94;4967426;28;20631;-71
2021/03/07 02:12:54;;;;;;;4.83;1.30;;;;;;;-144.99;87.53;52395.09;4966541;28;20667;-71
2021/03/07 02:15:22;;;;;;;3.57;1.37;;;;;;;-144.99;87.53;52366.56;4965690;28;20635;-71
2021/03/07 02:17:48;;;;;;;2.50;0.90;;;;;;;-144.99;87.27;52391.03;4968449;28;20736;-71
2021/03/07 02:20:19;;;;;;;3.97;3.27;;;;;;;-144.99;87.03;52360.44;4966780;28;21197;-69
2021/03/07 02:22:52;;;;;;;2.50;1.30;;;;;;;-144.99;86.96;52378.78;4968796;28;20663;-71
2021/03/07 02:25:19;;;;;;;2.20;1.00;;;;;;;-144.99;86.62;52382.88;4964328;28;20691;-71
2021/03/07 02:27:46;;;;;;;5.87;1.20;;;;;;;-144.99;86.46;52395.09;4966452;28;20781;-72
2021/03/07 02:30:14;;;;;;;2.43;1.20;;;;;;;-144.99;86.49;52378.78;4968490;28;20628;-72
2021/03/07 02:32:44;;;;;;;5.27;1.77;;;;;;;-144.99;86.35;52378.78;4968176;28;20710;-71
2021/03/07 02:35:14;;;;;;;7.13;2.07;;;;;;;-144.99;86.28;52372.69;4969730;28;20639;-70
2021/03/07 02:37:45;;;;;;;4.03;2.47;;;;;;;-144.99;86.04;52350.25;4969968;28;20662;-70
2021/03/07 02:40:13;;;;;;;5.10;1.40;;;;;;;-144.99;86.06;52350.25;4968800;28;20642;-70
2021/03/07 02:42:42;;;;;;;6.63;1.70;;;;;;;-144.99;86.02;52366.56;4968855;28;20648;-70
2021/03/07 02:45:11;;;;;;;3.23;1.47;;;;;;;-144.99;86.13;52370.63;4964463;28;21207;-70
2021/03/07 02:47:39;;;;;;;4.50;1.90;;;;;;;-144.99;86.09;52350.25;4964397;28;20679;-71
2021/03/07 02:50:10;;;;;;;6.83;1.33;;;;;;;-144.99;86.19;52321.72;4965243;28;20698;-71
2021/03/07 02:52:39;;;;;;;2.57;1.23;;;;;;;-144.99;86.30;52331.91;4966159;28;20652;-71
2021/03/07 02:55:07;;;;;;;7.13;1.63;;;;;;;-144.99;86.38;52415.47;4965318;28;20640;-70
2021/03/07 02:57:36;;;;;;;7.10;1.33;;;;;;;-144.99;86.36;52366.56;4961166;28;20663;-70
2021/03/07 03:00:06;;;;;;;3.77;1.40;;;;;;;-144.99;86.42;52366.56;4965726;28;20632;-70
2021/03/07 03:02:32;;;;;;;2.30;1.33;;;;;;;-144.99;86.40;52413.44;4965258;28;20623;-70
2021/03/07 03:04:59;;;;;;;7.00;1.93;;;;;;;-144.99;86.52;52372.69;4966240;28;20635;-69
2021/03/07 03:07:27;;;;;;;3.40;1.60;;;;;;;-144.99;86.35;52391.03;4961527;28;21615;-71
2021/03/07 03:09:55;;;;;;;3.70;1.83;;;;;;;-144.99;86.53;52348.22;4968219;28;20929;-70
2021/03/07 03:12:23;;;;;;;4.40;2.20;;;;;;;-144.99;86.48;52358.41;4967374;28;20664;-71
2021/03/07 03:14:50;;;;;;;2.33;1.40;;;;;;;-144.99;86.51;52362.50;4968941;28;20657;-72
2021/03/07 03:17:17;;;;;;;5.27;2.10;;;;;;;-144.99;86.65;52391.03;4967991;28;20771;-71
2021/03/07 03:19:46;;;;;;;3.77;1.23;;;;;;;-144.99;87.09;52399.19;4967851;28;20634;-71
2021/03/07 03:22:12;;;;;;;2.63;2.20;;;;;;;-144.99;87.23;52350.25;4968327;28;20639;-71
2021/03/07 03:24:39;;;;;;;7.80;2.80;;;;;;;-144.99;87.54;52329.88;4965990;28;20636;-71
2021/03/07 03:27:06;;;;;;;3.10;1.87;;;;;;;-144.99;88.03;52386.94;4965120;28;20659;-71
2021/03/07 03:29:33;;;;;;;4.67;2.07;;;;;;;-144.99;88.32;52370.63;4964223;28;20869;-72
2021/03/07 03:32:00;;;;;;;5.00;1.77;;;;;;;-144.99;88.27;52356.38;4964027;28;20638;-71
2021/03/07 03:34:27;;;;;;;4.53;2.17;;;;;;;-144.99;88.42;52370.63;4964889;28;20971;-71
2021/03/07 03:36:53;;;;;;;3.10;1.50;;;;;;;-144.99;87.98;52325.81;4964219;28;20655;-71
2021/03/07 03:39:24;;;;;;;5.77;2.37;;;;;;;-144.99;87.74;52350.25;4963187;28;20639;-71
2021/03/07 03:41:53;;;;;;;8.60;1.60;;;;;;;-144.99;87.23;52331.91;4965670;28;20734;-70
2021/03/07 03:44:23;;;;;;;3.13;1.70;;;;;;;-144.99;87.05;52403.25;4964693;28;20642;-69
2021/03/07 03:46:51;;;;;;;2.63;1.47;;;;;;;-144.99;87.04;52370.63;4967029;28;21076;-67
2021/03/07 03:49:23;;;;;;;3.83;1.63;;;;;;;-144.99;87.10;52362.50;4962009;28;21300;-68
2021/03/07 03:51:58;;;;;;;2.07;1.07;;;;;;;-144.99;87.37;52333.94;4967239;28;20642;-70
2021/03/07 03:54:27;;;;;;;4.53;1.67;;;;;;;-144.99;87.13;52399.19;4969506;28;20725;-69
2021/03/07 03:56:55;;;;;;;3.60;2.00;;;;;;;-144.99;87.22;52362.50;4966068;28;20741;-69
2021/03/07 03:59:23;;;;;;;3.77;1.60;;;;;;;-144.99;87.33;52356.38;4971949;28;20693;-69
2021/03/07 04:01:50;;;;;;;4.70;2.40;;;;;;;-144.99;87.28;52382.88;4965594;28;20631;-69
2021/03/07 04:04:18;;;;;;;4.40;1.53;;;;;;;-144.99;87.13;52399.19;4965254;28;20693;-69
2021/03/07 04:06:45;;;;;;;3.07;1.93;;;;;;;-144.99;87.23;52354.34;4964067;28;21256;-69
2021/03/07 04:09:13;;;;;;;2.47;1.33;;;;;;;-144.99;87.01;52366.56;4965099;28;20701;-69
2021/03/07 04:11:39;;;;;;;1.87;1.50;;;;;;;-144.99;86.97;52342.09;4964396;28;20624;-69
2021/03/07 04:14:06;;;;;;;3.27;1.73;;;;;;;-144.99;86.95;52407.31;4964312;28;20655;-69
2021/03/07 04:16:33;;;;;;;3.73;1.57;;;;;;;-144.99;87.01;52338.03;4964366;28;20655;-69
2021/03/07 04:18:59;;;;;;;6.23;2.23;;;;;;;-144.99;87.07;52344.16;4965058;28;20635;-69
2021/03/07 04:21:26;;;;;;;2.63;1.90;;;;;;;-144.99;86.95;52342.09;4959528;28;20645;-69
2021/03/07 04:23:53;;;;;;;7.73;1.80;;;;;;;-144.99;86.92;52346.19;4964314;28;20634;-69
2021/03/07 04:26:20;;;;;;;3.43;1.87;;;;;;;-144.99;86.97;52338.03;4964610;28;20667;-71
2021/03/07 04:28:47;;;;;;;6.03;2.33;;;;;;;-144.99;87.07;52342.09;4964575;28;20635;-69
2021/03/07 04:31:14;;;;;;;7.50;2.20;;;;;;;-144.99;86.89;52413.44;4965247;28;20624;-70
2021/03/07 04:33:41;;;;;;;5.03;2.20;;;;;;;-144.99;86.88;52358.41;4959293;28;20706;-70
2021/03/07 04:36:08;;;;;;;3.03;1.60;;;;;;;-144.99;86.86;52386.94;4964402;28;20667;-69
2021/03/07 04:38:35;;;;;;;5.20;2.03;;;;;;;-144.99;87.01;52344.16;4963687;28;20636;-70
2021/03/07 04:41:01;;;;;;;3.43;2.00;;;;;;;-144.99;86.94;52336.00;4964357;28;20636;-70
2021/03/07 04:43:37;;;;;;;15.53;2.57;;;;;;;-144.99;87.33;52350.25;4962245;28;20761;-70
2021/03/07 04:46:03;;;;;;;5.50;2.33;;;;;;;-144.99;87.22;52325.81;4963249;28;20698;-73
2021/03/07 04:48:30;;;;;;;6.17;2.03;;;;;;;-144.99;87.32;52354.34;4965034;28;20643;-72
2021/03/07 04:50:56;;;;;;;5.23;1.93;;;;;;;-144.99;87.45;52378.78;4965042;28;21218;-71
2021/03/07 04:53:22;;;;;;;3.73;2.27;;;;;;;-144.99;87.74;52342.09;4962416;28;20663;-71
2021/03/07 04:55:49;;;;;;;7.83;2.57;;;;;;;-144.99;87.83;52346.19;4965424;28;20666;-71
2021/03/07 04:58:15;;;;;;;4.73;2.17;;;;;;;-144.99;87.84;52395.09;4963959;28;20740;-72
2021/03/07 05:00:42;;;;;;;7.93;2.40;;;;;;;-144.99;88.22;52309.50;4963534;28;20636;-72
2021/03/07 05:03:08;;;;;;;8.97;5.43;;;;;;;-144.99;88.23;52366.56;4966771;28;20628;-73
2021/03/07 05:05:34;;;;;;;11.60;3.40;;;;;;;-144.99;88.57;52378.78;4967942;28;20641;-73
2021/03/07 05:08:00;;;;;;;3.83;1.70;;;;;;;-144.99;88.72;52362.50;4968870;28;20721;-72
2021/03/07 05:10:26;;;;;;;5.60;2.40;;;;;;;-144.99;88.71;52403.25;4967987;28;20965;-72
2021/03/07 05:12:52;;;;;;;5.23;2.67;;;;;;;-144.99;88.64;52413.44;4964677;28;21644;-71
2021/03/07 05:15:18;;;;;;;3.70;1.97;;;;;;;-144.99;88.87;52386.94;4963399;28;20986;-70
2021/03/07 05:17:45;;;;;;;9.13;3.73;;;;;;;-144.99;89.06;52386.94;4969246;28;20659;-72
2021/03/07 05:20:13;;;;;;;5.63;1.50;;;;;;;-144.99;89.04;52407.31;4966912;28;20638;-72
2021/03/07 05:22:39;;;;;;;3.27;2.73;;;;;;;-144.99;89.16;52391.03;4969680;28;20690;-72
2021/03/07 05:25:06;;;;;;;12.23;2.87;;;;;;;-144.99;89.30;52342.09;4971320;28;20643;-72
2021/03/07 05:27:32;;;;;;;6.23;2.50;;;;;;;-144.99;89.43;52391.03;4975471;28;20917;-71
2021/03/07 05:29:58;;;;;;;5.93;3.17;;;;;;;-144.99;89.16;52391.03;4972808;28;21858;-69
2021/03/07 05:32:24;;;;;;;6.60;3.97;;;;;;;-144.99;89.09;52366.56;4968685;28;20201;-69
2021/03/07 05:34:51;;;;;;;4.30;3.13;;;;;;;-144.99;88.88;52382.88;4967833;28;20748;-70
2021/03/07 05:37:17;;;;;;;3.10;1.83;;;;;;;-144.99;88.93;52395.09;4966100;28;20659;-71
2021/03/07 05:39:44;;;;;;;15.30;5.23;;;;;;;-144.99;88.92;52368.59;4968849;28;20638;-72
2021/03/07 05:42:10;;;;;;;5.93;2.87;;;;;;;-144.99;88.92;52348.22;4968165;28;20787;-70
2021/03/07 05:44:37;;;;;;;11.43;4.03;;;;;;;-144.99;88.78;52364.53;4966754;28;20631;-71
2021/03/07 05:47:03;;;;;;;4.27;2.37;;;;;;;-144.99;88.84;52354.34;4965408;28;20662;-70
2021/03/07 05:49:29;;;;;;;4.47;2.27;;;;;;;-144.99;88.76;52366.56;4966726;28;20709;-70
2021/03/07 05:51:57;;;;;;;7.40;2.63;;;;;;;-144.99;88.69;52370.63;4966403;28;21137;-71
2021/03/07 05:54:23;;;;;;;5.40;3.60;;;;;;;-144.99;88.41;52358.41;4965503;28;20710;-70
2021/03/07 05:56:50;;;;;;;6.67;3.20;;;;;;;-144.99;87.99;52403.25;4965881;28;20710;-72
2021/03/07 05:59:17;;;;;;;10.57;3.97;;;;;;;-144.99;87.14;52368.59;4966295;28;20635;-71
2021/03/07 06:01:43;;;;;;;8.47;3.20;;;;;;;-144.99;85.88;52362.50;4966811;28;20650;-70
2021/03/07 06:04:10;;;;;;;8.43;2.97;;;;;;;-144.99;85.33;52338.03;4967260;28;20631;-70
2021/03/07 06:06:36;;;;;;;6.90;3.00;;;;;;;-144.99;84.43;52397.13;4965722;28;20666;-71
2021/03/07 06:09:17;;;;;;;8.63;3.23;;;;;;;-144.99;84.13;52350.25;4966260;28;21761;-70
2021/03/07 06:11:43;;;;;;;4.77;2.20;;;;;;;-144.99;83.94;52346.19;4968166;28;20639;-69
2021/03/07 06:14:17;;;;;;;8.20;3.13;;;;;;;-144.99;83.99;52374.72;4965539;28;20691;-72
2021/03/07 06:16:57;;;;;;;8.93;4.10;;;;;;;-144.99;83.27;52348.22;4965736;28;21271;-69
2021/03/07 06:19:23;;;;;;;7.60;2.70;;;;;;;-144.99;83.27;52399.19;4960862;28;20631;-70
2021/03/07 06:21:49;;;;;;;13.90;3.77;;;;;;;-144.99;82.51;52354.34;4969815;28;20630;-72
2021/03/07 06:24:34;;;;;;;6.90;2.90;;;;;;;-144.99;82.09;52366.56;4966757;28;20661;-70
2021/03/07 06:27:05;;;;;;;5.37;2.57;;;;;;;-144.99;81.28;52321.72;4966918;28;20681;-70
2021/03/07 06:29:31;;;;;;;7.30;3.27;;;;;;;-144.99;81.19;52340.06;4962735;28;20623;-70
2021/03/07 06:31:57;;;;;;;5.90;2.67;;;;;;;-144.99;81.01;52382.88;4968113;28;20640;-71
2021/03/07 06:34:23;;;;;;;13.60;3.97;;;;;;;-144.99;80.55;52366.56;4968665;28;20674;-71
2021/03/07 06:37:01;;;;;;;7.60;3.00;;;;;;;-144.99;80.41;52364.53;4963414;28;20667;-71
2021/03/07 06:39:28;;;;;;;4.40;2.70;;;;;;;-144.99;80.53;52342.09;4964705;28;20835;-70
2021/03/07 06:42:01;;;;;;;5.90;2.67;;;;;;;-144.99;80.21;52342.09;4968152;28;21269;-71
2021/03/07 06:44:27;;;;;;;5.20;1.90;;;;;;;-144.99;80.09;52391.03;4965704;28;20738;-71
2021/03/07 06:46:53;;;;;;;12.83;3.77;;;;;;;-144.99;80.06;52338.03;4962542;28;20667;-70
2021/03/07 06:49:24;;;;;;;4.50;2.00;;;;;;;-144.99;80.20;52350.25;5001229;23;20700;-75
2021/03/07 06:51:50;;;;;;;7.13;2.60;;;;;;;-144.99;79.95;52370.63;4981900;28;20725;-76
2021/03/07 06:54:18;;;;;;;4.73;2.80;;;;;;;-144.99;78.99;52380.84;4984895;28;20666;-76
2021/03/07 06:56:46;;;;;;;6.87;2.57;;;;;;;-144.99;78.75;52362.50;4987126;28;20627;-75
2021/03/07 06:59:15;;;;;;;4.73;2.63;;;;;;;-144.99;78.22;52342.09;4978781;28;20650;-72
2021/03/07 07:01:43;;;;;;;8.60;3.20;;;;;;;-144.99;78.20;52384.91;4967042;28;20975;-75
2021/03/07 07:04:09;;;;;;;5.37;2.70;;;;;;;-144.99;78.32;52415.47;4976245;28;20618;-74
2021/03/07 07:06:38;;;;;;;5.07;2.27;;;;;;;-144.99;78.37;52374.72;4976514;28;20656;-74
2021/03/07 07:09:06;;;;;;;8.33;2.50;;;;;;;-144.99;78.56;52333.94;4975606;28;21117;-71
2021/03/07 07:11:44;;;;;;;4.33;3.17;;;;;;;-144.99;78.70;52346.19;4970469;28;21164;-72
2021/03/07 07:14:11;;;;;;;4.23;1.87;;;;;;;-144.99;78.82;52329.88;4972120;28;21029;-74
2021/03/07 07:16:38;;;;;;;9.07;2.57;;;;;;;-144.99;79.00;52378.78;4968896;28;20615;-74
2021/03/07 07:19:04;;;;;;;5.00;2.57;;;;;;;-144.99;79.21;52358.41;4974522;28;20662;-73
2021/03/07 07:21:30;;;;;;;5.77;3.10;;;;;;;-144.99;79.06;52368.59;4975710;28;21284;-74
2021/03/07 07:23:57;;;;;;;7.07;2.07;;;;;;;-144.99;78.90;52362.50;4972960;28;21200;-75
2021/03/07 07:26:23;;;;;;;8.97;2.33;;;;;;;-144.99;78.54;52362.50;4970155;28;20628;-74
2021/03/07 07:28:49;;;;;;;9.37;2.27;;;;;;;-144.99;78.54;52378.78;4970424;28;21314;-73
2021/03/07 07:31:22;;;;;;;11.97;3.37;;;;;;;-144.99;78.42;52399.19;4971694;28;20972;-73
2021/03/07 07:33:53;;;;;;;10.43;2.37;;;;;;;-144.99;78.42;52382.88;4973793;28;20756;-72
2021/03/07 07:36:24;;;;;;;6.67;3.27;;;;;;;-144.99;78.29;52364.53;4967734;28;20661;-74
2021/03/07 07:38:52;;;;;;;7.23;4.50;;;;;;;-144.99;78.42;52348.22;4963860;28;20655;-74
2021/03/07 07:41:36;;;;;;;7.67;2.10;;;;;;;-144.99;78.55;52386.94;4980807;28;20631;-73
2021/03/07 07:44:05;;;;;;;5.83;1.97;;;;;;;-144.99;78.66;52352.28;4974262;28;20634;-75
2021/03/07 07:46:32;;;;;;;7.07;3.03;;;;;;;-144.99;78.69;52370.63;4971256;28;20725;-75
2021/03/07 07:49:00;;;;;;;5.97;2.97;;;;;;;-144.99;78.83;52374.72;4968769;28;21315;-76
2021/03/07 07:51:35;;;;;;;8.87;2.10;;;;;;;-144.99;78.68;52346.19;4969097;28;20646;-75
2021/03/07 07:54:01;;;;;;;9.60;2.93;;;;;;;-144.99;78.48;52329.88;4973943;28;20642;-75
2021/03/07 07:56:48;;;;;;;8.50;2.47;;;;;;;-144.99;78.45;52382.88;4975175;28;20635;-74
2021/03/07 07:59:14;;;;;;;6.83;1.93;;;;;;;-144.99;78.40;52358.41;4965993;28;21146;-74
2021/03/07 08:01:52;;;;;;;7.90;2.67;;;;;;;-144.99;78.58;52366.56;4967186;28;21126;-74
2021/03/07 08:04:39;;;;;;;7.50;2.67;;;;;;;-144.99;78.52;52346.19;4973491;28;20637;-72
2021/03/07 08:07:07;;;;;;;4.57;1.93;;;;;;;-144.99;78.60;52382.88;4966724;28;20977;-73
2021/03/07 08:09:34;;;;;;;4.23;2.00;;;;;;;-144.99;78.18;52319.69;4971001;28;21106;-71
2021/03/07 08:12:00;;;;;;;2.63;2.10;;;;;;;-144.99;78.72;52362.50;4976593;28;20694;-73
2021/03/07 08:14:34;;;;;;;4.30;2.37;;;;;;;-144.99;78.61;52378.78;4975211;28;20671;-72
2021/03/07 08:17:00;;;;;;;4.57;2.87;;;;;;;-144.99;78.46;52321.72;4975724;28;20762;-73
2021/03/07 08:19:43;;;;;;;11.03;2.57;;;;;;;-144.99;78.13;52354.34;4977586;28;21253;-72
2021/03/07 08:22:09;;;;;;;19.27;1.83;;;;;;;-144.99;78.45;52323.75;4961674;28;20718;-72
2021/03/07 08:24:55;;;;;;;3.80;2.03;;;;;;;-144.99;78.38;52360.44;4973264;28;20635;-70
2021/03/07 08:27:37;;;;;;;8.97;2.10;;;;;;;-144.99;78.39;52366.56;4972906;28;20639;-74
2021/03/07 08:30:05;;;;;;;11.57;3.20;;;;;;;-144.99;78.56;52346.19;4967940;28;20643;-76
2021/03/07 08:32:35;;;;;;;6.77;2.63;;;;;;;-144.99;78.49;52338.03;4965649;28;20702;-74
2021/03/07 08:35:10;;;;;;;5.17;1.97;;;;;;;-144.99;78.27;52391.03;4973673;28;20645;-75
2021/03/07 08:37:36;;;;;;;11.20;2.17;;;;;;;-144.99;78.45;52376.75;4978493;28;21281;-75
2021/03/07 08:40:29;;;;;;;4.47;1.80;;;;;;;-144.99;78.33;52391.03;4974775;28;21036;-76
2021/03/07 08:42:56;;;;;;;11.00;2.67;;;;;;;-144.99;78.33;52378.78;4976143;28;21041;-73
2021/03/07 08:45:23;;;;;;;5.40;1.93;;;;;;;-144.99;78.37;52378.78;4978089;28;20635;-74
2021/03/07 08:47:57;;;;;;;7.73;2.37;;;;;;;-144.99;78.42;52356.38;4979473;28;21198;-75
2021/03/07 08:50:25;;;;;;;7.33;2.07;;;;;;;-144.99;78.37;52382.88;4978235;28;20639;-76
2021/03/07 08:52:51;;;;;;;3.20;2.67;;;;;;;-144.99;78.15;52354.34;4973626;28;20662;-76
2021/03/07 08:55:17;;;;;;;5.60;2.40;;;;;;;-144.99;77.42;52297.25;4974758;28;20650;-75
2021/03/07 08:57:45;;;;;;;4.53;2.30;;;;;;;-144.99;76.95;52366.56;4973450;28;20733;-76
2021/03/07 09:00:13;;;;;;;4.70;2.23;;;;;;;-144.99;76.00;52313.56;4975791;28;20667;-75
2021/03/07 09:02:39;;;;;;;11.00;2.77;;;;;;;-144.99;75.92;52374.72;4973822;28;20645;-77
2021/03/07 09:05:08;;;;;;;6.07;2.20;;;;;;;-144.99;74.93;52344.16;4972764;28;20649;-77
2021/03/07 09:07:35;;;;;;;10.00;2.63;;;;;;;-144.99;74.91;52370.63;4978048;28;20750;-78
2021/03/07 09:10:01;;;;;;;8.93;5.17;;;;;;;-144.99;74.94;52338.03;4971463;28;20665;-75
2021/03/07 09:12:27;;;;;;;9.17;2.37;;;;;;;-144.99;74.25;52354.34;4973651;28;20631;-77
2021/03/07 09:14:53;;;;;;;8.73;3.43;;;;;;;-144.99;73.37;52323.75;4977509;28;20662;-76
2021/03/07 09:17:22;;;;;;;4.87;2.00;;;;;;;-144.99;73.50;52338.03;4974679;28;20649;-77
2021/03/07 09:19:48;;;;;;;5.77;1.97;;;;;;;-144.99;72.93;52386.94;4977720;28;20754;-77
2021/03/07 09:22:20;;;;;;;3.47;2.20;;;;;;;-144.99;72.68;52340.06;4977704;28;20633;-77
2021/03/07 09:24:53;;;;;;;8.00;5.10;;;;;;;-144.99;72.83;52350.25;4980336;28;20629;-78
2021/03/07 09:27:20;;;;;;;3.07;1.60;;;;;;;-144.99;72.21;52325.81;4976975;28;20630;-75
2021/03/07 09:30:08;;;;;;;8.93;2.90;;;;;;;-144.99;72.22;52346.19;4973626;28;21516;-77
2021/03/07 09:32:37;;;;;;;8.67;2.13;;;;;;;-144.99;71.89;52346.19;4977511;28;20631;-78
2021/03/07 09:35:18;;;;;;;4.57;3.53;;;;;;;-144.99;71.79;52374.72;4978246;28;20667;-79
2021/03/07 09:37:53;;;;;;;4.63;1.93;;;;;;;-144.99;71.96;52344.16;4979788;28;20631;-77
2021/03/07 09:40:21;;;;;;;4.03;2.10;;;;;;;-144.99;72.19;52321.72;4975160;28;21117;-77
2021/03/07 09:42:54;;;;;;;5.13;3.57;;;;;;;-144.99;72.28;52346.19;4969095;28;20654;-79
2021/03/07 09:45:21;;;;;;;3.30;1.80;;;;;;;-144.99;71.70;52342.09;4975367;28;20676;-78
2021/03/07 09:47:47;;;;;;;4.37;2.10;;;;;;;-144.99;71.55;52358.41;4974820;28;20845;-79
2021/03/07 09:50:15;;;;;;;5.60;3.03;;;;;;;-144.99;71.56;52350.25;4971967;28;21165;-79
2021/03/07 09:52:42;;;;;;;6.97;2.27;;;;;;;-144.99;71.47;52313.56;4978665;28;20636;-77
2021/03/07 09:55:09;;;;;;;9.87;2.70;;;;;;;-144.99;71.50;52366.56;4977270;28;21002;-78
2021/03/07 09:57:37;;;;;;;5.53;2.00;;;;;;;-144.99;72.15;52350.25;4976220;28;20670;-76
2021/03/07 10:00:04;;;;;;;9.67;3.87;;;;;;;-144.99;71.96;52325.81;4977862;28;20659;-76
2021/03/07 10:02:35;;;;;;;7.07;2.97;;;;;;;-144.99;71.52;52333.94;4970786;28;20635;-75
2021/03/07 10:05:10;;;;;;;9.50;3.87;;;;;;;-144.99;71.60;52358.41;4976501;28;20630;-74
2021/03/07 10:07:36;;;;;;;4.00;2.23;;;;;;;-144.99;71.78;52336.00;4978084;28;20634;-75
2021/03/07 10:10:05;;;;;;;8.17;2.63;;;;;;;-144.99;72.11;52346.19;4977364;28;20693;-75
2021/03/07 10:12:52;;;;;;;6.93;2.60;;;;;;;-144.99;72.03;52350.25;4969685;28;20738;-75
2021/03/07 10:15:27;;;;;;;5.50;1.87;;;;;;;-144.99;72.67;52325.81;4971361;28;22018;-73
2021/03/07 10:17:55;;;;;;;8.97;2.97;;;;;;;-144.99;72.42;52350.25;4974955;28;21100;-75
2021/03/07 10:20:21;;;;;;;7.27;2.70;;;;;;;-144.99;72.79;52338.03;4981704;28;20690;-75
2021/03/07 10:22:48;;;;;;;7.63;2.10;;;;;;;-144.99;72.58;52321.72;4967402;28;21223;-74
2021/03/07 10:25:24;;;;;;;4.77;2.60;;;;;;;-144.99;72.45;52317.66;4965453;28;20632;-74
2021/03/07 10:28:00;;;;;;;4.93;2.10;;;;;;;-144.99;71.97;52354.34;4961518;28;20639;-74
2021/03/07 10:30:31;;;;;;;4.80;2.47;;;;;;;-144.99;71.03;52329.88;4964996;28;20643;-74
2021/03/07 10:33:13;;;;;;;5.07;2.43;;;;;;;-144.99;70.90;52356.38;4969709;28;20647;-75
2021/03/07 10:35:40;;;;;;;6.37;2.27;;;;;;;-144.99;70.91;52338.03;4969816;28;20741;-75
2021/03/07 10:38:18;;;;;;;6.83;3.67;;;;;;;-144.99;70.91;52338.03;4965724;28;20849;-76
2021/03/07 10:40:44;;;;;;;5.47;3.07;;;;;;;-144.99;71.03;52344.16;4963721;28;20628;-74
2021/03/07 10:43:11;;;;;;;4.07;2.40;;;;;;;-144.99;71.01;52350.25;4969141;28;20627;-75
2021/03/07 10:45:39;;;;;;;4.23;2.60;;;;;;;-144.99;71.09;52333.94;4962456;28;20690;-75
2021/03/07 10:48:07;;;;;;;14.33;4.23;;;;;;;-144.99;70.50;52350.25;4964115;28;21181;-75
2021/03/07 10:50:34;;;;;;;11.30;4.70;;;;;;;-144.99;71.14;52289.13;4964737;28;20966;-74
2021/03/07 10:53:01;;;;;;;6.17;3.33;;;;;;;-144.99;71.32;52325.81;4967912;28;20632;-73
2021/03/07 10:55:27;;;;;;;12.83;3.10;;;;;;;-144.99;71.64;52323.75;4969756;28;20657;-74
2021/03/07 10:57:53;;;;;;;6.97;3.23;;;;;;;-144.99;71.51;52354.34;4973672;28;20620;-73
2021/03/07 11:00:23;;;;;;;7.13;2.97;;;;;;;-144.99;71.79;52378.78;4966926;28;20668;-75
2021/03/07 11:02:49;;;;;;;5.90;3.30;;;;;;;-144.99;71.97;52354.34;4965262;28;20639;-74
2021/03/07 11:05:16;;;;;;;9.80;4.60;;;;;;;-144.99;72.36;52333.94;4971635;28;21263;-75
2021/03/07 11:07:43;;;;;;;8.27;3.43;;;;;;;-144.99;72.62;52372.69;4972725;28;20727;-74
2021/03/07 11:10:11;;;;;;;10.30;3.73;;;;;;;-144.99;73.43;52333.94;4970423;28;20667;-74
2021/03/07 11:12:37;;;;;;;7.03;3.97;;;;;;;-144.99;73.98;52333.94;4975609;28;21090;-73
2021/03/07 11:15:05;;;;;;;10.07;4.80;;;;;;;-144.99;74.54;52354.34;4971172;28;20874;-75
2021/03/07 11:17:32;;;;;;;7.07;4.27;;;;;;;-144.99;74.70;52342.09;4971538;28;20662;-73
2021/03/07 11:19:58;;;;;;;7.73;4.50;;;;;;;-144.99;75.24;52321.72;4969104;28;20659;-74
2021/03/07 11:22:26;;;;;;;10.47;4.07;;;;;;;-144.99;75.42;52350.25;4976179;28;20627;-75